KOAK/OAK METAR and TAF weather

Enter ICAO airport designator
Station Type Date Time Source
KOAK METAR 2021/02/25 01:53 UTC NOAA

KOAK 250153Z 01013G22KT 10SM CLR 20/M12 A3019 RMK AO2 SLP223 T02001117


Station Type Date Time Source
KOAK Decoded METAR 2021/02/25 01:53 UTC NOAA

METRO OAKLAND INTERNATIONAL AIRPORT , CA, United States (KOAK) 37-43N 122-14W 26M
Feb 24, 2021 - 08:53 PM EST / 2021.02.25 0153 UTC
Wind: from the N (010 degrees) at 15 MPH (13 KT) gusting to 25 MPH (22 KT):0
Visibility: 10 mile(s):0
Sky conditions: clear
Temperature: 68.0 F (20.0 C)
Dew Point: 10.9 F (-11.7 C)
Relative Humidity: 10%
Pressure (altimeter): 30.19 in. Hg (1022 hPa)
ob: KOAK 250153Z 01013G22KT 10SM CLR 20/M12 A3019 RMK AO2 SLP223 T02001117
cycle: 2

Station Type Date Time Source
KOAK TAF 2021/02/24 18:34 UTC NOAA

TAF KOAK 241732Z 2418/2524 31006KT P6SM SKC WS020/01025KT
FM242000 32012G25KT P6SM SKC
FM250300 33008KT P6SM SKC WS015/02035KT
FM250900 31005KT P6SM SKC WS015/02030KT
FM251500 VRB03KT P6SM SKC

Example: see airport list